Time;durP1;ratioP1;P1;durP2;ratioP2;P2;SDS_P1;SDS_P2;PMS_P1;PMS_P2;Temp;Humidity;BMP_temperature;BMP_pressure;BME280_temperature;BME280_humidity;BME280_pressure;Samples;Min_cycle;Max_cycle;Signal;HPM_P1;HPM_P2
2023/09/12 00:01:11;;;;;;;8.18;7.28;;;25.50;67.60;;;;;;5082371;28;20546;-77
2023/09/12 00:03:37;;;;;;;8.48;7.40;;;25.50;67.60;;;;;;5082561;28;20533;-76
2023/09/12 00:06:04;;;;;;;8.43;7.45;;;25.50;67.70;;;;;;5117952;28;20040;-78
2023/09/12 00:08:30;;;;;;;8.90;7.60;;;25.40;67.60;;;;;;5082948;28;20036;-76
2023/09/12 00:11:10;;;;;;;8.52;7.55;;;25.40;67.70;;;;;;5083122;28;20042;-78
2023/09/12 00:13:35;;;;;;;8.55;7.63;;;25.40;67.80;;;;;;5099257;28;20089;-77
2023/09/12 00:16:01;;;;;;;8.93;7.88;;;25.40;67.80;;;;;;5099829;28;20024;-76
2023/09/12 00:18:27;;;;;;;8.27;7.28;;;25.40;67.90;;;;;;5099389;28;20089;-76
2023/09/12 00:20:53;;;;;;;11.77;7.60;;;25.40;67.90;;;;;;5098790;28;20074;-77
2023/09/12 00:23:21;;;;;;;8.48;7.38;;;25.30;67.90;;;;;;5082088;28;20027;-77
2023/09/12 00:25:47;;;;;;;8.82;7.72;;;25.30;67.90;;;;;;5082046;28;20499;-78
2023/09/12 00:28:13;;;;;;;9.32;8.32;;;25.30;67.90;;;;;;5117488;28;20036;-78
2023/09/12 00:30:38;;;;;;;9.10;8.20;;;25.20;67.90;;;;;;5082734;28;20035;-77
2023/09/12 00:33:04;;;;;;;8.73;7.63;;;25.20;67.90;;;;;;5065236;28;20388;-77
2023/09/12 00:35:30;;;;;;;8.60;7.43;;;25.20;68.00;;;;;;5081945;28;20085;-77
2023/09/12 00:37:56;;;;;;;9.00;7.68;;;25.20;68.00;;;;;;5099510;28;20471;-77
2023/09/12 00:40:22;;;;;;;10.20;8.10;;;25.20;68.00;;;;;;5081785;28;20028;-77
2023/09/12 00:42:47;;;;;;;9.20;8.18;;;25.10;68.10;;;;;;5081818;28;20050;-77
2023/09/12 00:45:13;;;;;;;8.70;7.80;;;25.10;68.10;;;;;;5081553;28;20122;-78
2023/09/12 00:47:39;;;;;;;9.35;8.25;;;25.10;68.10;;;;;;5116660;28;20039;-79
2023/09/12 00:50:06;;;;;;;8.90;7.97;;;25.10;68.20;;;;;;5081913;28;20040;-79
2023/09/12 00:52:34;;;;;;;8.43;7.25;;;25.10;68.20;;;;;;5097812;28;20466;-78
2023/09/12 00:55:01;;;;;;;8.90;7.93;;;25.10;68.20;;;;;;5098567;28;20028;-79
2023/09/12 00:57:28;;;;;;;9.30;8.18;;;25.00;68.20;;;;;;5099276;28;20430;-79
2023/09/12 00:59:54;;;;;;;9.75;8.75;;;25.00;68.30;;;;;;5081994;28;20027;-79
2023/09/12 01:02:20;;;;;;;9.00;7.72;;;25.00;68.30;;;;;;5081768;28;20047;-79
2023/09/12 01:04:47;;;;;;;8.77;7.45;;;24.90;68.30;;;;;;5117265;28;20127;-79
2023/09/12 01:07:13;;;;;;;9.80;8.07;;;24.90;68.30;;;;;;5117169;28;20039;-79
2023/09/12 01:09:40;;;;;;;9.35;7.50;;;24.90;68.30;;;;;;5082326;28;20380;-79
2023/09/12 01:12:06;;;;;;;9.50;8.02;;;24.90;68.30;;;;;;5081791;28;20047;-79
2023/09/12 01:14:32;;;;;;;8.95;7.97;;;24.90;68.40;;;;;;5098666;28;20032;-79
2023/09/12 01:16:59;;;;;;;9.90;8.82;;;24.80;68.30;;;;;;5081414;28;20385;-79
2023/09/12 01:19:25;;;;;;;9.60;8.48;;;24.80;68.40;;;;;;5081552;28;20402;-79
2023/09/12 01:22:21;;;;;;;9.95;8.45;;;24.80;68.50;;;;;;5081199;28;20035;-79
2023/09/12 01:25:05;;;;;;;10.50;8.45;;;24.80;68.50;;;;;;5116615;28;20100;-78
2023/09/12 01:27:36;;;;;;;;;;;24.80;68.50;;;;;;5099285;28;20031;-78
2023/09/12 01:30:05;;;;;;;6.57;5.60;;;24.70;68.30;;;;;;5098066;28;19908;-78
2023/09/12 01:32:33;;;;;;;9.02;7.43;;;24.70;68.40;;;;;;5080943;28;20380;-79
2023/09/12 01:34:59;;;;;;;9.18;8.20;;;24.70;68.50;;;;;;5080740;28;20024;-79
2023/09/12 01:37:26;;;;;;;9.40;8.40;;;24.60;68.40;;;;;;5097772;28;20380;-79
2023/09/12 01:39:52;;;;;;;8.60;7.65;;;24.60;68.50;;;;;;5098082;28;20027;-78
2023/09/12 01:42:20;;;;;;;9.95;8.32;;;24.60;68.60;;;;;;5115939;28;20415;-79
2023/09/12 01:44:49;;;;;;;9.38;8.18;;;24.60;68.70;;;;;;5097829;28;20028;-79
2023/09/12 01:47:17;;;;;;;11.20;8.80;;;24.60;68.60;;;;;;5097526;28;20123;-79
2023/09/12 01:49:47;;;;;;;9.65;8.40;;;24.60;68.60;;;;;;5098001;28;20472;-79
2023/09/12 01:52:14;;;;;;;9.10;8.13;;;24.60;68.60;;;;;;5097169;28;20472;-78
2023/09/12 01:54:42;;;;;;;9.23;8.23;;;24.50;68.60;;;;;;5079916;28;20032;-78
2023/09/12 01:57:09;;;;;;;9.68;7.93;;;24.50;68.60;;;;;;5097659;28;20055;-78
2023/09/12 01:59:35;;;;;;;8.68;7.28;;;24.50;68.70;;;;;;5097250;28;20073;-78
2023/09/12 02:02:01;;;;;;;9.30;8.35;;;24.40;68.60;;;;;;5097401;28;20043;-78
2023/09/12 02:04:26;;;;;;;9.82;8.82;;;24.40;68.70;;;;;;5097851;28;20448;-79
2023/09/12 02:06:52;;;;;;;9.32;8.15;;;24.40;68.70;;;;;;5080380;28;20035;-79
2023/09/12 02:09:18;;;;;;;9.80;8.75;;;24.40;68.70;;;;;;5097075;28;20035;-79
2023/09/12 02:11:43;;;;;;;9.43;8.20;;;24.40;68.70;;;;;;5080155;28;20522;-78
2023/09/12 02:14:10;;;;;;;9.57;8.57;;;24.30;68.70;;;;;;5097794;28;20036;-78
2023/09/12 02:16:40;;;;;;;9.07;8.18;;;24.30;68.70;;;;;;5096603;28;20020;-78
2023/09/12 02:19:06;;;;;;;9.50;8.50;;;24.30;68.90;;;;;;5115266;28;20032;-79
2023/09/12 02:21:32;;;;;;;10.55;8.52;;;24.20;68.70;;;;;;5096831;28;20034;-80
2023/09/12 02:23:57;;;;;;;10.40;8.48;;;24.30;68.80;;;;;;5079867;28;20032;-79
2023/09/12 02:26:23;;;;;;;10.50;9.00;;;24.20;68.80;;;;;;5096766;28;20108;-79
2023/09/12 02:28:50;;;;;;;9.57;8.38;;;24.20;68.90;;;;;;5096971;28;20424;-80
2023/09/12 02:31:15;;;;;;;9.32;8.35;;;24.20;68.90;;;;;;5096749;28;20130;-79
2023/09/12 02:33:42;;;;;;;9.65;8.10;;;24.10;68.90;;;;;;5097044;28;20031;-80
2023/09/12 02:36:07;;;;;;;8.82;7.93;;;24.10;68.90;;;;;;5096785;28;20123;-79
2023/09/12 02:38:33;;;;;;;9.05;8.15;;;24.10;69.20;;;;;;5079775;28;20459;-79
2023/09/12 02:40:59;;;;;;;9.07;7.80;;;24.10;69.00;;;;;;5096802;28;20043;-79
2023/09/12 02:43:25;;;;;;;10.70;8.63;;;24.00;68.90;;;;;;5079676;28;20027;-79
2023/09/12 02:45:51;;;;;;;9.55;8.10;;;24.10;69.70;;;;;;5097235;28;20024;-79
2023/09/12 02:48:16;;;;;;;9.57;8.38;;;24.00;69.00;;;;;;5079839;28;20451;-79
2023/09/12 02:50:42;;;;;;;8.65;7.68;;;24.00;69.10;;;;;;5114584;28;20084;-80
2023/09/12 02:53:08;;;;;;;9.43;8.35;;;24.00;69.10;;;;;;5079437;28;20488;-79
2023/09/12 02:55:38;;;;;;;9.52;8.30;;;24.00;69.10;;;;;;5079388;28;20460;-79
2023/09/12 02:58:04;;;;;;;8.88;7.60;;;23.90;69.10;;;;;;5114534;28;20028;-79
2023/09/12 03:00:30;;;;;;;9.80;8.18;;;23.90;69.80;;;;;;5079388;28;20031;-79
2023/09/12 03:02:56;;;;;;;10.13;8.05;;;23.90;69.10;;;;;;5079441;28;20032;-78
2023/09/12 03:05:22;;;;;;;8.43;7.47;;;23.80;69.20;;;;;;5079635;28;20095;-79
2023/09/12 03:07:48;;;;;;;8.95;7.80;;;23.80;69.10;;;;;;5063251;28;20523;-79
2023/09/12 03:10:14;;;;;;;9.50;7.97;;;23.80;69.20;;;;;;5096108;28;20112;-79
2023/09/12 03:12:41;;;;;;;9.77;8.18;;;23.80;69.20;;;;;;5096106;28;20081;-79
2023/09/12 03:15:08;;;;;;;10.05;8.35;;;23.80;69.30;;;;;;5079712;28;20042;-80
2023/09/12 03:17:34;;;;;;;10.55;8.52;;;23.70;69.20;;;;;;5062833;28;20031;-79
2023/09/12 03:20:01;;;;;;;8.95;8.05;;;23.70;69.20;;;;;;5079261;28;20039;-79
2023/09/12 03:22:26;;;;;;;8.70;7.47;;;23.70;69.30;;;;;;5079655;28;20036;-80
2023/09/12 03:24:52;;;;;;;9.57;7.80;;;23.70;69.30;;;;;;5079368;28;20038;-79
2023/09/12 03:27:18;;;;;;;9.05;7.57;;;23.60;69.30;;;;;;5095802;28;20023;-79
2023/09/12 03:29:47;;;;;;;8.48;7.57;;;23.60;69.30;;;;;;5079214;28;20038;-79
2023/09/12 03:32:12;;;;;;;9.10;7.57;;;23.60;69.40;;;;;;5095761;28;20039;-79
2023/09/12 03:34:38;;;;;;;9.20;7.82;;;23.60;69.40;;;;;;5079794;28;20038;-79
2023/09/12 03:37:04;;;;;;;9.05;7.93;;;23.60;69.40;;;;;;5095999;28;20036;-79
2023/09/12 03:39:30;;;;;;;8.75;7.75;;;23.60;69.50;;;;;;5079008;28;20027;-79
2023/09/12 03:41:56;;;;;;;8.88;7.95;;;23.50;69.40;;;;;;5095825;28;20036;-79
2023/09/12 03:44:21;;;;;;;9.52;8.35;;;23.50;69.50;;;;;;5079366;28;20119;-81
2023/09/12 03:46:47;;;;;;;8.55;7.65;;;23.50;69.50;;;;;;5079784;28;20487;-79
2023/09/12 03:49:13;;;;;;;8.77;7.78;;;23.50;69.50;;;;;;5079664;28;20032;-79
2023/09/12 03:51:39;;;;;;;9.18;7.80;;;23.50;69.60;;;;;;5063108;28;20043;-79
2023/09/12 03:54:06;;;;;;;8.57;7.65;;;23.40;69.70;;;;;;5078817;28;20487;-79
2023/09/12 03:56:31;;;;;;;8.48;7.43;;;23.40;69.60;;;;;;5078446;28;20050;-79
2023/09/12 03:58:58;;;;;;;8.93;7.50;;;23.40;69.60;;;;;;5078992;28;20043;-79
2023/09/12 04:01:24;;;;;;;9.18;7.88;;;23.40;69.70;;;;;;5095776;28;20035;-80
2023/09/12 04:03:50;;;;;;;9.38;8.00;;;23.40;69.70;;;;;;5079322;28;20077;-79
2023/09/12 04:06:16;;;;;;;8.98;7.75;;;23.30;69.60;;;;;;5078997;28;20080;-79
2023/09/12 04:08:41;;;;;;;8.50;7.63;;;23.40;69.70;;;;;;5095687;28;20093;-78
2023/09/12 04:11:07;;;;;;;9.00;7.68;;;23.30;69.70;;;;;;5095179;28;20051;-79
2023/09/12 04:13:33;;;;;;;8.75;7.78;;;23.30;69.70;;;;;;5095630;28;20063;-79
2023/09/12 04:15:59;;;;;;;9.30;8.15;;;23.30;69.80;;;;;;5095597;28;20383;-79
2023/09/12 04:18:24;;;;;;;8.55;7.35;;;23.30;69.70;;;;;;5099246;28;20034;-79
2023/09/12 04:20:51;;;;;;;9.13;7.80;;;23.30;69.80;;;;;;5099129;28;20035;-79
2023/09/12 04:23:16;;;;;;;8.55;7.32;;;23.20;69.80;;;;;;5082333;28;20449;-79
2023/09/12 04:25:45;;;;;;;8.15;6.97;;;23.20;69.80;;;;;;5082396;28;20028;-79
2023/09/12 04:28:11;;;;;;;8.40;7.15;;;23.20;69.80;;;;;;5082297;28;20027;-77
2023/09/12 04:30:39;;;;;;;8.63;7.40;;;23.20;69.90;;;;;;5082850;28;20047;-79
2023/09/12 04:33:05;;;;;;;8.32;7.28;;;23.20;69.90;;;;;;5082915;28;20460;-79
2023/09/12 04:35:34;;;;;;;9.00;7.25;;;23.10;69.80;;;;;;5098952;28;20107;-79
2023/09/12 04:38:00;;;;;;;8.50;7.20;;;23.10;69.90;;;;;;5082040;28;20164;-79
2023/09/12 04:40:27;;;;;;;8.07;7.05;;;23.10;69.90;;;;;;5065463;28;20105;-80
2023/09/12 04:42:53;;;;;;;8.43;7.53;;;23.10;69.90;;;;;;5098674;28;20032;-79
2023/09/12 04:45:19;;;;;;;9.15;7.38;;;23.10;70.00;;;;;;5098776;28;20089;-79
2023/09/12 04:47:45;;;;;;;9.02;7.47;;;23.10;70.00;;;;;;5082031;28;20027;-78
2023/09/12 04:50:13;;;;;;;8.18;7.03;;;23.10;70.00;;;;;;5099850;28;20038;-79
2023/09/12 04:52:39;;;;;;;8.02;6.70;;;23.00;69.90;;;;;;5081487;28;20073;-78
2023/09/12 04:55:05;;;;;;;8.95;7.38;;;23.10;70.00;;;;;;5081782;28;20472;-78
2023/09/12 04:57:31;;;;;;;8.15;7.10;;;23.00;70.00;;;;;;5081904;28;20027;-80
2023/09/12 04:59:58;;;;;;;9.35;7.05;;;23.00;70.00;;;;;;5081682;28;20034;-79
2023/09/12 05:02:25;;;;;;;8.32;6.78;;;23.00;70.10;;;;;;5098353;28;20043;-78
2023/09/12 05:04:51;;;;;;;8.82;7.65;;;23.00;70.10;;;;;;5098514;28;20020;-79
2023/09/12 05:07:17;;;;;;;8.77;7.18;;;23.00;70.10;;;;;;5081892;28;20078;-78
2023/09/12 05:09:43;;;;;;;9.18;7.70;;;23.00;70.20;;;;;;5082340;28;20372;-79
2023/09/12 05:12:09;;;;;;;7.90;6.80;;;23.00;70.20;;;;;;5081433;28;20396;-78
2023/09/12 05:14:35;;;;;;;8.65;6.90;;;23.00;70.20;;;;;;5098645;28;20031;-79
2023/09/12 05:17:01;;;;;;;7.80;6.68;;;23.00;70.20;;;;;;5098178;28;20032;-78
2023/09/12 05:19:29;;;;;;;7.60;6.68;;;23.00;70.30;;;;;;5065248;28;20034;-78
2023/09/12 05:21:54;;;;;;;7.65;6.40;;;22.90;70.30;;;;;;5098932;28;20032;-78
2023/09/12 05:24:20;;;;;;;8.90;7.20;;;23.00;70.30;;;;;;5098321;28;20043;-79
2023/09/12 05:26:47;;;;;;;8.30;7.28;;;22.90;70.30;;;;;;5081206;28;20093;-78
2023/09/12 05:29:13;;;;;;;7.95;6.90;;;22.90;70.30;;;;;;5080413;28;20038;-78
2023/09/12 05:31:39;;;;;;;7.82;6.53;;;22.90;70.30;;;;;;5097860;28;20039;-79
2023/09/12 05:34:04;;;;;;;9.35;7.32;;;23.00;70.40;;;;;;5097446;28;20105;-78
2023/09/12 05:36:30;;;;;;;8.90;7.60;;;22.90;70.40;;;;;;5081059;28;20059;-79
2023/09/12 05:38:56;;;;;;;8.90;7.30;;;22.90;70.40;;;;;;5081572;28;20050;-78
2023/09/12 05:41:22;;;;;;;9.40;8.20;;;22.90;70.40;;;;;;5081167;28;20063;-78
2023/09/12 05:43:48;;;;;;;8.98;7.35;;;22.90;70.40;;;;;;5081024;28;20027;-78
2023/09/12 05:46:14;;;;;;;9.52;7.32;;;22.90;70.50;;;;;;5080979;28;20126;-78
2023/09/12 05:48:39;;;;;;;9.20;7.78;;;22.90;70.50;;;;;;5097675;28;20039;-78
2023/09/12 05:51:05;;;;;;;9.50;8.05;;;22.90;70.50;;;;;;5081392;28;20487;-78
2023/09/12 05:53:31;;;;;;;9.48;7.95;;;22.90;70.60;;;;;;5080556;28;20066;-78
2023/09/12 05:55:56;;;;;;;9.48;7.80;;;22.90;70.60;;;;;;5098024;28;20086;-78
2023/09/12 05:58:23;;;;;;;9.30;8.32;;;22.90;70.60;;;;;;5064694;28;20032;-79
2023/09/12 06:00:48;;;;;;;9.40;7.60;;;22.90;70.60;;;;;;5080502;28;20035;-80
2023/09/12 06:03:15;;;;;;;9.45;8.05;;;22.90;70.60;;;;;;5080335;28;20031;-80
2023/09/12 06:05:40;;;;;;;9.85;8.07;;;22.90;70.60;;;;;;5115459;28;20084;-80
2023/09/12 06:08:06;;;;;;;10.73;8.13;;;22.90;70.60;;;;;;5115361;28;20035;-80
2023/09/12 06:10:33;;;;;;;10.68;8.73;;;22.90;70.70;;;;;;5097219;28;20100;-79
2023/09/12 06:12:59;;;;;;;10.45;9.00;;;22.90;70.70;;;;;;5097805;28;20142;-80
2023/09/12 06:15:25;;;;;;;10.00;8.25;;;22.90;70.70;;;;;;5096970;28;20557;-80
2023/09/12 06:17:51;;;;;;;10.02;8.82;;;22.90;70.70;;;;;;5115472;28;20110;-80
2023/09/12 06:20:17;;;;;;;10.27;8.52;;;22.90;70.70;;;;;;5096618;28;20032;-79
2023/09/12 06:22:43;;;;;;;10.55;9.23;;;22.90;70.70;;;;;;5063202;28;20506;-79
2023/09/12 06:25:09;;;;;;;11.23;9.35;;;22.90;70.70;;;;;;5080442;28;20028;-80
2023/09/12 06:27:35;;;;;;;9.73;8.70;;;22.90;70.70;;;;;;5063298;28;20034;-79
2023/09/12 06:30:01;;;;;;;10.13;8.63;;;22.90;70.70;;;;;;5096758;28;20398;-79
2023/09/12 06:32:26;;;;;;;10.80;9.13;;;22.90;70.80;;;;;;5079614;28;20035;-79
2023/09/12 06:34:52;;;;;;;10.85;9.13;;;22.90;70.80;;;;;;5096800;28;20062;-81
2023/09/12 06:37:18;;;;;;;12.00;9.27;;;22.90;70.80;;;;;;5063157;28;20072;-79
2023/09/12 06:39:44;;;;;;;11.63;9.05;;;22.90;70.80;;;;;;5096347;28;20387;-80
2023/09/12 06:42:10;;;;;;;10.80;9.38;;;22.90;70.80;;;;;;5096883;28;20046;-79
2023/09/12 06:44:35;;;;;;;10.50;9.02;;;22.90;70.90;;;;;;5079605;28;20028;-79
2023/09/12 06:47:03;;;;;;;10.10;9.02;;;22.90;70.80;;;;;;5079456;28;20491;-80
2023/09/12 06:49:32;;;;;;;11.30;10.10;;;22.90;70.80;;;;;;5114365;28;20028;-80
2023/09/12 06:51:57;;;;;;;10.82;9.45;;;22.90;70.90;;;;;;5097217;28;20551;-80
2023/09/12 06:54:23;;;;;;;12.20;9.98;;;22.90;70.90;;;;;;5079486;28;20131;-80
2023/09/12 06:56:49;;;;;;;10.65;8.77;;;22.90;70.80;;;;;;5114464;28;20051;-79
2023/09/12 06:59:14;;;;;;;12.55;10.27;;;22.90;70.90;;;;;;5096662;28;20103;-79
2023/09/12 07:01:40;;;;;;;9.90;8.68;;;22.90;70.90;;;;;;5079321;28;20066;-80
2023/09/12 07:04:06;;;;;;;12.30;9.80;;;22.90;70.90;;;;;;5062545;28;20031;-80
2023/09/12 07:06:32;;;;;;;12.98;10.15;;;22.90;70.90;;;;;;5096003;28;20031;-80
2023/09/12 07:08:58;;;;;;;11.60;9.93;;;22.90;70.90;;;;;;5096519;28;20060;-80
2023/09/12 07:11:24;;;;;;;11.65;10.15;;;22.90;70.90;;;;;;5096013;28;20074;-80
2023/09/12 07:13:50;;;;;;;11.45;10.20;;;22.90;70.90;;;;;;5079238;28;20028;-80
2023/09/12 07:16:15;;;;;;;12.45;9.85;;;22.90;70.90;;;;;;5095927;28;20051;-80
2023/09/12 07:18:41;;;;;;;12.20;9.82;;;22.90;70.90;;;;;;5079462;28;20027;-79
2023/09/12 07:21:07;;;;;;;11.25;9.43;;;22.90;71.00;;;;;;5095817;28;20043;-80
2023/09/12 07:23:33;;;;;;;11.98;9.77;;;22.90;70.90;;;;;;5096061;28;20031;-80
2023/09/12 07:25:59;;;;;;;11.63;9.82;;;22.90;70.90;;;;;;5079438;28;20028;-79
2023/09/12 07:28:28;;;;;;;12.57;10.02;;;22.90;71.00;;;;;;5096115;28;20111;-80
2023/09/12 07:30:57;;;;;;;11.77;9.95;;;22.90;71.00;;;;;;5113678;28;20092;-79
2023/09/12 07:33:23;;;;;;;11.60;9.48;;;22.90;71.00;;;;;;5095566;28;20059;-80
2023/09/12 07:35:51;;;;;;;12.38;10.38;;;22.90;71.00;;;;;;5062553;28;20067;-80
2023/09/12 07:38:17;;;;;;;12.32;9.95;;;22.90;71.10;;;;;;5113996;28;20028;-80
2023/09/12 07:40:43;;;;;;;11.23;9.65;;;22.90;71.00;;;;;;5113989;28;20032;-79
2023/09/12 07:43:10;;;;;;;10.98;9.32;;;22.90;71.00;;;;;;5095700;28;20035;-79
2023/09/12 07:45:39;;;;;;;11.25;9.75;;;22.90;71.00;;;;;;5096185;28;20035;-79
2023/09/12 07:48:07;;;;;;;11.52;9.40;;;23.00;71.10;;;;;;5078950;28;20545;-79
2023/09/12 07:50:33;;;;;;;11.73;9.60;;;23.00;71.10;;;;;;5095690;28;20115;-79
2023/09/12 07:52:58;;;;;;;11.77;9.30;;;22.90;71.00;;;;;;5117500;28;20118;-79
2023/09/12 07:55:24;;;;;;;10.90;9.18;;;23.00;71.10;;;;;;5082813;28;20114;-79
2023/09/12 07:57:50;;;;;;;10.88;9.38;;;23.00;71.10;;;;;;5117586;28;20066;-80
2023/09/12 08:00:16;;;;;;;11.32;9.63;;;23.00;71.20;;;;;;5117750;28;20503;-80
2023/09/12 08:02:42;;;;;;;11.65;10.13;;;23.00;71.10;;;;;;5066244;28;20036;-79
2023/09/12 08:05:09;;;;;;;11.77;10.10;;;23.00;71.20;;;;;;5099599;28;20057;-79
2023/09/12 08:07:35;;;;;;;11.10;9.63;;;23.00;71.20;;;;;;5082677;28;20028;-79
2023/09/12 08:10:02;;;;;;;11.98;9.90;;;23.00;71.20;;;;;;5099348;28;20461;-79
2023/09/12 08:12:28;;;;;;;10.82;9.68;;;23.00;71.10;;;;;;5099589;28;20036;-80
2023/09/12 08:14:56;;;;;;;11.63;10.15;;;23.00;71.10;;;;;;5099183;28;20035;-79
2023/09/12 08:17:23;;;;;;;11.70;9.82;;;23.10;71.20;;;;;;5099464;28;20031;-79
2023/09/12 08:19:48;;;;;;;12.55;9.93;;;23.10;71.20;;;;;;5099906;28;20028;-82
2023/09/12 08:22:14;;;;;;;12.30;10.77;;;23.10;71.20;;;;;;5082213;28;20088;-79
2023/09/12 08:24:40;;;;;;;11.60;9.50;;;23.10;71.20;;;;;;5117908;28;20027;-78
2023/09/12 08:27:06;;;;;;;12.85;10.43;;;23.10;71.20;;;;;;5117985;28;20038;-79
2023/09/12 08:29:33;;;;;;;12.27;10.02;;;23.10;71.20;;;;;;5082759;28;20084;-78
2023/09/12 08:31:59;;;;;;;12.00;9.68;;;23.10;71.20;;;;;;5082065;28;20494;-79
2023/09/12 08:34:25;;;;;;;12.50;9.65;;;23.20;71.20;;;;;;5099359;28;20032;-79
2023/09/12 08:36:51;;;;;;;13.00;10.55;;;23.10;71.70;;;;;;5117024;28;20065;-79
2023/09/12 08:39:27;;;;;;;11.13;9.60;;;23.20;71.20;;;;;;5082226;28;20024;-79
2023/09/12 08:41:53;;;;;;;11.13;9.55;;;23.20;71.20;;;;;;5117236;28;20059;-79
2023/09/12 08:44:20;;;;;;;12.23;9.85;;;23.20;71.10;;;;;;5082309;28;20494;-79
2023/09/12 08:46:47;;;;;;;13.02;10.57;;;23.20;71.10;;;;;;5081832;28;20028;-79
2023/09/12 08:49:12;;;;;;;12.43;10.02;;;23.20;71.10;;;;;;5099305;28;20051;-79
2023/09/12 08:51:41;;;;;;;10.82;9.70;;;23.30;71.10;;;;;;5081506;28;20071;-79
2023/09/12 08:54:09;;;;;;;11.85;9.98;;;23.30;71.10;;;;;;5065147;28;20051;-78
2023/09/12 08:56:36;;;;;;;11.88;9.95;;;23.30;71.00;;;;;;5117069;28;20023;-79
2023/09/12 08:59:04;;;;;;;13.50;10.75;;;23.30;71.00;;;;;;5116996;28;20028;-79
2023/09/12 09:01:34;;;;;;;12.52;10.48;;;23.40;71.00;;;;;;5081549;28;20081;-79
2023/09/12 09:04:03;;;;;;;11.98;10.43;;;23.40;71.00;;;;;;5080430;28;20028;-79
2023/09/12 09:06:31;;;;;;;12.00;9.85;;;23.50;71.00;;;;;;5098525;28;20049;-79
2023/09/12 09:08:59;;;;;;;11.02;9.25;;;23.50;71.00;;;;;;5098286;28;20540;-79
2023/09/12 09:11:27;;;;;;;11.73;9.75;;;23.50;70.90;;;;;;5081931;28;20088;-79
2023/09/12 09:13:53;;;;;;;12.25;9.70;;;23.50;70.90;;;;;;5116571;28;20056;-79
2023/09/12 09:16:21;;;;;;;11.45;8.95;;;23.60;70.90;;;;;;5081233;28;20039;-79
2023/09/12 09:19:13;;;;;;;12.07;9.77;;;23.60;70.80;;;;;;5082035;28;20039;-79
2023/09/12 09:21:40;;;;;;;9.65;8.45;;;23.60;70.90;;;;;;5080097;28;20047;-79
2023/09/12 09:24:08;;;;;;;11.82;9.55;;;23.70;70.70;;;;;;5081336;28;20051;-79
2023/09/12 09:26:45;;;;;;;12.30;10.23;;;23.70;70.70;;;;;;5081367;28;20024;-79
2023/09/12 09:29:15;;;;;;;11.45;9.82;;;23.80;70.80;;;;;;5081277;28;20387;-79
2023/09/12 09:31:42;;;;;;;11.00;9.75;;;23.80;70.70;;;;;;5080935;28;20036;-79
2023/09/12 09:34:30;;;;;;;12.20;9.52;;;23.80;70.60;;;;;;5115730;28;20391;-79
2023/09/12 09:36:57;;;;;;;11.48;9.13;;;23.90;70.70;;;;;;5080927;28;20023;-79
2023/09/12 09:39:28;;;;;;;11.25;8.45;;;23.90;70.40;;;;;;5097600;28;20104;-79
2023/09/12 09:41:56;;;;;;;10.90;9.00;;;24.00;70.50;;;;;;5097944;28;20028;-79
2023/09/12 09:44:26;;;;;;;11.85;8.88;;;24.00;70.40;;;;;;5080562;28;20035;-79
2023/09/12 09:46:55;;;;;;;10.98;9.10;;;24.10;70.40;;;;;;5097806;28;20490;-80
2023/09/12 09:49:21;;;;;;;9.90;8.23;;;24.10;70.40;;;;;;5064221;28;20024;-79
2023/09/12 09:51:47;;;;;;;10.60;8.82;;;24.20;70.30;;;;;;5080863;28;20097;-78
2023/09/12 09:54:14;;;;;;;10.48;8.77;;;24.20;70.20;;;;;;5115744;28;20131;-79
2023/09/12 09:56:52;;;;;;;10.93;8.88;;;24.30;70.20;;;;;;5115439;28;20126;-78
2023/09/12 09:59:21;;;;;;;9.43;7.95;;;24.40;70.30;;;;;;5097725;28;20080;-79
2023/09/12 10:01:49;;;;;;;9.48;7.68;;;24.40;70.10;;;;;;5097054;28;20222;-78
2023/09/12 10:04:15;;;;;;;10.27;8.20;;;24.50;70.10;;;;;;5080258;28;20035;-78
2023/09/12 10:06:45;;;;;;;10.00;8.10;;;24.50;70.00;;;;;;5081117;28;20032;-78
2023/09/12 10:09:13;;;;;;;9.82;8.00;;;24.60;70.60;;;;;;5115600;28;20020;-79
2023/09/12 10:11:40;;;;;;;8.95;7.38;;;24.60;69.90;;;;;;5097194;28;20036;-78
2023/09/12 10:14:07;;;;;;;9.52;8.02;;;24.70;69.80;;;;;;5096412;28;20028;-79
2023/09/12 10:16:55;;;;;;;9.57;7.80;;;24.80;69.80;;;;;;5096740;28;20427;-79
2023/09/12 10:19:27;;;;;;;8.88;7.10;;;24.90;69.70;;;;;;5096134;28;20125;-79
2023/09/12 10:22:23;;;;;;;8.05;6.63;;;24.90;69.60;;;;;;5097783;28;20122;-79
2023/09/12 10:24:51;;;;;;;7.57;6.05;;;25.00;69.60;;;;;;5096683;28;20444;-79
2023/09/12 10:27:19;;;;;;;7.72;6.38;;;25.10;69.50;;;;;;5096810;28;20036;-79
2023/09/12 10:29:47;;;;;;;8.25;6.75;;;25.10;69.40;;;;;;5096595;28;20028;-79
2023/09/12 10:32:14;;;;;;;8.23;6.38;;;25.20;69.50;;;;;;5096523;28;20130;-79
2023/09/12 10:34:45;;;;;;;9.25;7.00;;;25.30;69.50;;;;;;5097093;28;20357;-79
2023/09/12 10:37:15;;;;;;;8.15;6.65;;;25.30;69.50;;;;;;5115460;28;20038;-79
2023/09/12 10:39:45;;;;;;;7.85;6.57;;;25.40;69.50;;;;;;5080465;28;20034;-81
2023/09/12 10:42:12;;;;;;;8.00;6.35;;;25.40;69.40;;;;;;5114457;28;20031;-78
2023/09/12 10:44:38;;;;;;;7.72;6.43;;;25.50;69.50;;;;;;5096454;28;20028;-79
2023/09/12 10:47:05;;;;;;;8.32;6.82;;;25.60;69.50;;;;;;5096697;28;20038;-78
2023/09/12 10:49:31;;;;;;;7.05;5.80;;;25.70;69.50;;;;;;5080061;28;20027;-80
2023/09/12 10:51:58;;;;;;;8.00;6.20;;;25.70;69.50;;;;;;5115286;28;20505;-78
2023/09/12 10:54:38;;;;;;;7.97;5.78;;;25.70;69.40;;;;;;5114554;28;20081;-79
2023/09/12 10:57:13;;;;;;;6.90;5.68;;;25.80;69.60;;;;;;5114597;28;20027;-79
2023/09/12 11:00:01;;;;;;;7.38;6.13;;;25.90;69.60;;;;;;5079830;28;20460;-78
2023/09/12 11:02:32;;;;;;;7.28;5.43;;;25.90;69.60;;;;;;5096856;28;20024;-79
2023/09/12 11:05:06;;;;;;;6.22;5.53;;;26.00;69.60;;;;;;5079312;28;20447;-79
2023/09/12 11:07:38;;;;;;;6.97;5.63;;;26.00;69.60;;;;;;5114604;28;20476;-79
2023/09/12 11:10:16;;;;;;;6.00;4.72;;;26.10;69.60;;;;;;5079588;28;20031;-79
2023/09/12 11:12:43;;;;;;;6.57;5.07;;;26.10;69.60;;;;;;5095939;28;20070;-79
2023/09/12 11:15:13;;;;;;;6.30;4.90;;;26.20;69.60;;;;;;5096109;28;20023;-79
2023/09/12 11:17:47;;;;;;;6.28;4.70;;;26.20;69.70;;;;;;5096908;28;20042;-79
2023/09/12 11:20:15;;;;;;;6.25;4.88;;;26.30;69.80;;;;;;5096384;28;20033;-80
2023/09/12 11:22:46;;;;;;;6.00;4.50;;;26.30;69.70;;;;;;5062415;28;20035;-78
2023/09/12 11:25:25;;;;;;;6.45;5.03;;;26.30;69.80;;;;;;5078675;28;20468;-78
2023/09/12 11:27:51;;;;;;;5.15;4.07;;;26.40;69.90;;;;;;5095945;28;20032;-77
2023/09/12 11:30:42;;;;;;;5.63;4.47;;;26.40;69.90;;;;;;5079089;28;20027;-78
2023/09/12 11:33:11;;;;;;;6.90;4.40;;;26.40;69.90;;;;;;5095725;28;20036;-77
2023/09/12 11:35:40;;;;;;;5.40;4.38;;;26.50;70.00;;;;;;5079248;28;20032;-79
2023/09/12 11:38:10;;;;;;;5.80;4.63;;;26.50;70.00;;;;;;5095646;28;20125;-79
2023/09/12 11:40:35;;;;;;;5.68;4.45;;;26.50;70.20;;;;;;5113869;28;20023;-79
2023/09/12 11:43:01;;;;;;;6.93;5.18;;;26.60;70.40;;;;;;5095910;28;20031;-78
2023/09/12 11:45:30;;;;;;;6.25;4.70;;;26.60;70.40;;;;;;5062506;28;20027;-78
2023/09/12 11:47:56;;;;;;;6.68;4.68;;;26.60;70.50;;;;;;5096350;28;20036;-78
2023/09/12 11:50:33;;;;;;;5.70;4.43;;;26.60;70.50;;;;;;5079781;28;20468;-78
2023/09/12 11:53:01;;;;;;;6.63;4.85;;;26.70;70.60;;;;;;5079354;28;20059;-78
2023/09/12 11:55:26;;;;;;;5.55;4.45;;;26.70;70.60;;;;;;5078851;28;20126;-79
2023/09/12 11:57:52;;;;;;;5.65;4.20;;;26.70;70.60;;;;;;5079452;28;20149;-78
2023/09/12 12:00:19;;;;;;;5.72;4.25;;;26.70;70.60;;;;;;5079356;28;20032;-79
2023/09/12 12:02:46;;;;;;;5.70;4.35;;;26.70;70.60;;;;;;5078671;28;20035;-77
2023/09/12 12:05:12;;;;;;;5.22;3.97;;;26.70;70.70;;;;;;5096205;28;20054;-78
2023/09/12 12:07:39;;;;;;;5.82;4.43;;;26.70;70.60;;;;;;5078940;28;20077;-78
2023/09/12 12:10:05;;;;;;;5.40;3.97;;;26.70;70.60;;;;;;5078645;28;20043;-77
2023/09/12 12:12:31;;;;;;;5.13;3.88;;;26.80;70.70;;;;;;5079320;28;20062;-78
2023/09/12 12:14:57;;;;;;;4.97;3.97;;;26.80;70.60;;;;;;5113373;28;20066;-78
2023/09/12 12:17:23;;;;;;;4.85;3.85;;;26.80;70.60;;;;;;5095381;28;20028;-78
2023/09/12 12:19:49;;;;;;;5.18;3.90;;;26.80;70.60;;;;;;5113428;28;20034;-78
2023/09/12 12:22:15;;;;;;;4.70;3.20;;;26.80;70.50;;;;;;5095756;28;20031;-78
2023/09/12 12:24:51;;;;;;;5.95;4.03;;;26.80;70.50;;;;;;5095367;28;20490;-78
2023/09/12 12:27:17;;;;;;;5.60;3.85;;;26.80;70.50;;;;;;5095552;28;20456;-79
2023/09/12 12:29:43;;;;;;;4.70;3.42;;;26.80;70.40;;;;;;5078620;28;20035;-79
2023/09/12 12:32:10;;;;;;;4.68;3.50;;;26.80;70.40;;;;;;5095292;28;20051;-79
2023/09/12 12:34:36;;;;;;;4.03;2.92;;;26.90;70.60;;;;;;5095263;28;20031;-79
2023/09/12 12:37:03;;;;;;;4.80;3.63;;;26.80;70.40;;;;;;5095549;28;20433;-80
2023/09/12 12:39:29;;;;;;;4.95;3.30;;;26.80;70.40;;;;;;5081959;28;20032;-79
2023/09/12 12:41:55;;;;;;;5.15;3.50;;;26.80;70.40;;;;;;5082313;28;20491;-79
2023/09/12 12:44:21;;;;;;;4.53;3.47;;;26.80;70.30;;;;;;5081765;28;20036;-79